Time;durP1;ratioP1;P1;durP2;ratioP2;P2;SDS_P1;SDS_P2;PMS_P1;PMS_P2;Temp;Humidity;BMP_temperature;BMP_pressure;BME280_temperature;BME280_humidity;BME280_pressure;Samples;Min_cycle;Max_cycle;Signal;HPM_P1;HPM_P2
2024/04/04 00:00:55;;;;;;;7.88;2.22;;;;;;;9.28;100.00;100708.56;5089723;28;20071;-39
2024/04/04 00:03:21;;;;;;;6.47;1.50;;;;;;;9.24;100.00;100693.03;5089891;28;20036;-39
2024/04/04 00:05:49;;;;;;;5.47;1.30;;;;;;;9.23;100.00;100694.09;5082026;28;20085;-39
2024/04/04 00:08:14;;;;;;;4.90;1.20;;;;;;;9.21;100.00;100691.59;5075681;28;20068;-39
2024/04/04 00:10:39;;;;;;;10.77;1.87;;;;;;;9.22;100.00;100695.97;5076204;28;20059;-38
2024/04/04 00:13:05;;;;;;;8.70;2.27;;;;;;;9.21;100.00;100678.09;5075917;28;20128;-39
2024/04/04 00:15:30;;;;;;;5.20;1.63;;;;;;;9.24;100.00;100679.53;5076394;28;20063;-39
2024/04/04 00:17:55;;;;;;;7.03;1.90;;;;;;;9.24;100.00;100682.25;5076245;28;20036;-39
2024/04/04 00:20:20;;;;;;;7.53;1.73;;;;;;;9.21;100.00;100685.38;5076236;28;20040;-38
2024/04/04 00:22:46;;;;;;;5.60;1.40;;;;;;;9.20;100.00;100668.38;5076078;28;20032;-38
2024/04/04 00:25:12;;;;;;;7.40;2.07;;;;;;;9.18;100.00;100669.66;5076339;28;20483;-39
2024/04/04 00:27:38;;;;;;;8.60;1.77;;;;;;;9.21;100.00;100670.03;5075433;28;20457;-39
2024/04/04 00:30:04;;;;;;;7.97;1.80;;;;;;;9.17;100.00;100655.31;5075682;28;20039;-39
2024/04/04 00:32:30;;;;;;;6.00;1.73;;;;;;;9.26;100.00;100661.25;5076148;28;20467;-39
2024/04/04 00:34:55;;;;;;;5.43;2.00;;;;;;;9.25;100.00;100651.50;5076104;28;20056;-39
2024/04/04 00:37:20;;;;;;;7.87;1.83;;;;;;;9.33;100.00;100664.69;5076093;28;20020;-39
2024/04/04 00:39:46;;;;;;;6.38;1.70;;;;;;;9.28;100.00;100651.88;5075511;28;20028;-39
2024/04/04 00:42:11;;;;;;;4.85;1.63;;;;;;;9.32;100.00;100662.22;5075223;28;20036;-39
2024/04/04 00:44:37;;;;;;;8.60;1.83;;;;;;;9.32;100.00;100662.22;5076063;28;20036;-39
2024/04/04 00:47:02;;;;;;;7.05;2.08;;;;;;;9.32;100.00;100657.66;5075878;28;20032;-39
2024/04/04 00:49:28;;;;;;;6.22;1.70;;;;;;;9.31;100.00;100647.91;5075850;28;20407;-39
2024/04/04 00:51:53;;;;;;;5.30;1.27;;;;;;;9.31;100.00;100639.81;5076067;28;20051;-37
2024/04/04 00:54:19;;;;;;;4.40;1.67;;;;;;;9.31;100.00;100637.09;5075702;28;20090;-39
2024/04/04 00:56:46;;;;;;;5.97;1.58;;;;;;;9.31;100.00;100629.00;5074903;28;20032;-39
2024/04/04 00:59:12;;;;;;;5.03;1.55;;;;;;;9.32;100.00;100637.91;5075127;28;20027;-38
2024/04/04 01:01:41;;;;;;;6.15;1.88;;;;;;;9.32;100.00;100632.53;5075041;28;20090;-38
2024/04/04 01:04:06;;;;;;;5.72;1.50;;;;;;;9.33;100.00;100618.81;5075016;28;20108;-39
2024/04/04 01:06:33;;;;;;;6.88;1.40;;;;;;;9.38;100.00;100615.44;5074989;28;20532;-39
2024/04/04 01:08:58;;;;;;;;;;;;;;;9.43;100.00;100602.91;5075403;28;20043;-39
2024/04/04 01:11:23;;;;;;;5.35;1.25;;;;;;;9.38;100.00;100601.94;5074958;28;19912;-39
2024/04/04 01:13:49;;;;;;;8.40;1.90;;;;;;;9.38;100.00;100594.69;5075149;28;20059;-38
2024/04/04 01:16:15;;;;;;;6.40;2.00;;;;;;;9.41;100.00;100591.50;5074543;28;20282;-39
2024/04/04 01:18:40;;;;;;;5.55;1.42;;;;;;;9.36;100.00;100575.16;5074385;28;20452;-38
2024/04/04 01:21:06;;;;;;;6.07;1.10;;;;;;;9.46;100.00;100594.34;5074730;28;20021;-38
2024/04/04 01:23:31;;;;;;;5.28;1.63;;;;;;;9.41;100.00;100587.97;5074661;28;20753;-39
2024/04/04 01:25:56;;;;;;;4.77;1.27;;;;;;;9.47;100.00;100582.50;5074641;28;20453;-39
2024/04/04 01:28:22;;;;;;;5.83;1.37;;;;;;;9.48;100.00;100569.84;5074906;28;20315;-39
2024/04/04 01:30:47;;;;;;;4.47;1.10;;;;;;;9.40;100.00;100546.69;5074316;28;20104;-39
2024/04/04 01:33:12;;;;;;;3.80;1.27;;;;;;;9.46;100.00;100556.53;5074457;28;20108;-39
2024/04/04 01:35:38;;;;;;;5.73;1.43;;;;;;;9.46;100.00;100551.16;5074987;28;20103;-39
2024/04/04 01:38:03;;;;;;;5.83;1.43;;;;;;;9.53;100.00;100562.69;5074399;28;20123;-39
2024/04/04 01:40:29;;;;;;;5.38;1.30;;;;;;;9.55;100.00;100563.25;5074060;28;20025;-39
2024/04/04 01:42:54;;;;;;;5.20;1.40;;;;;;;9.54;100.00;100550.81;5074298;28;20472;-39
2024/04/04 01:45:19;;;;;;;6.80;1.57;;;;;;;9.52;100.00;100546.72;5074619;28;20120;-39
2024/04/04 01:47:45;;;;;;;3.57;1.10;;;;;;;9.49;100.00;100539.91;5074737;28;20028;-39
2024/04/04 01:50:10;;;;;;;5.37;1.47;;;;;;;9.52;100.00;100539.44;5073877;28;20727;-38
2024/04/04 01:52:35;;;;;;;5.17;1.20;;;;;;;9.53;100.00;100545.66;5074376;28;20070;-39
2024/04/04 01:55:00;;;;;;;6.83;1.63;;;;;;;9.59;100.00;100557.41;5073646;28;20049;-39
2024/04/04 01:57:26;;;;;;;5.03;1.70;;;;;;;9.49;100.00;100539.91;5074063;28;20063;-39
2024/04/04 01:59:51;;;;;;;3.33;1.20;;;;;;;9.60;100.00;100550.94;5074057;28;20425;-39
2024/04/04 02:02:17;;;;;;;6.10;1.42;;;;;;;9.60;100.00;100545.56;5073908;28;20029;-39
2024/04/04 02:04:42;;;;;;;6.40;1.80;;;;;;;9.66;100.00;100544.63;5074433;28;20528;-39
2024/04/04 02:07:08;;;;;;;3.30;1.30;;;;;;;9.65;100.00;100545.69;5073542;28;20047;-39
2024/04/04 02:09:33;;;;;;;4.47;1.42;;;;;;;9.64;100.00;100536.75;5074318;28;20036;-39
2024/04/04 02:11:58;;;;;;;4.47;1.10;;;;;;;9.57;100.00;100521.75;5073849;28;20020;-39
2024/04/04 02:14:24;;;;;;;7.20;1.30;;;;;;;9.64;100.00;100533.25;5073917;28;20029;-39
2024/04/04 02:16:49;;;;;;;5.80;1.60;;;;;;;9.54;100.00;100510.34;5073970;28;20298;-39
2024/04/04 02:19:14;;;;;;;3.77;1.07;;;;;;;9.63;100.00;100521.63;5073996;28;20048;-39
2024/04/04 02:21:40;;;;;;;3.63;1.17;;;;;;;9.64;100.00;100519.75;5074154;28;20296;-41
2024/04/04 02:24:05;;;;;;;4.00;1.23;;;;;;;9.60;100.00;100511.28;5073618;28;20021;-39
2024/04/04 02:26:32;;;;;;;4.57;1.23;;;;;;;9.44;100.00;100472.31;5074064;28;20278;-39
2024/04/04 02:28:59;;;;;;;4.80;1.60;;;;;;;9.59;100.00;100500.72;5073572;28;20043;-39
2024/04/04 02:31:24;;;;;;;4.97;1.50;;;;;;;9.55;100.00;100489.56;5073988;28;20028;-39
2024/04/04 02:33:50;;;;;;;6.15;1.50;;;;;;;9.60;100.00;100496.97;5073696;28;20090;-39
2024/04/04 02:36:15;;;;;;;3.87;1.50;;;;;;;9.59;100.00;100487.22;5073188;28;20469;-39
2024/04/04 02:38:41;;;;;;;4.53;1.40;;;;;;;9.51;100.00;100472.19;5074099;28;20063;-39
2024/04/04 02:41:07;;;;;;;5.82;1.10;;;;;;;9.50;100.00;100478.63;5073165;28;20690;-39
2024/04/04 02:43:33;;;;;;;6.32;1.38;;;;;;;9.50;100.00;100465.97;5074006;28;20032;-38
2024/04/04 02:46:03;;;;;;;3.00;1.67;;;;;;;9.39;100.00;100445.19;5073336;28;20021;-38
2024/04/04 02:48:29;;;;;;;3.83;1.20;;;;;;;9.46;100.00;100456.69;5073330;28;20598;-39
2024/04/04 02:50:55;;;;;;;7.18;1.70;;;;;;;9.42;100.00;100455.53;5073548;28;20021;-39
2024/04/04 02:53:21;;;;;;;4.88;1.30;;;;;;;9.38;100.00;100443.56;5073787;28;20049;-39
2024/04/04 02:55:57;;;;;;;3.30;1.00;;;;;;;9.26;100.00;100421.94;5073354;28;20439;-39
2024/04/04 02:58:23;;;;;;;4.40;1.20;;;;;;;9.33;100.00;100438.03;5073221;28;20099;-39
2024/04/04 03:00:49;;;;;;;5.40;1.73;;;;;;;9.29;100.00;100429.56;5073201;28;20029;-39
2024/04/04 03:03:15;;;;;;;5.97;1.65;;;;;;;9.23;100.00;100422.41;5073275;28;20036;-39
2024/04/04 03:05:41;;;;;;;4.15;1.38;;;;;;;9.29;100.00;100423.34;5073661;28;20029;-39
2024/04/04 03:08:07;;;;;;;4.72;1.70;;;;;;;9.25;100.00;100419.47;5073160;28;20484;-39
2024/04/04 03:10:34;;;;;;;4.60;1.42;;;;;;;9.23;100.00;100417.03;5073979;28;20028;-39
2024/04/04 03:12:59;;;;;;;;;;;;;;;9.34;100.00;100406.47;5074018;28;20036;-39
2024/04/04 03:15:24;;;;;;;4.47;1.30;;;;;;;9.26;100.00;100394.94;5073546;28;19953;-39
2024/04/04 03:17:50;;;;;;;2.93;1.30;;;;;;;9.28;100.00;100398.25;5073120;28;20036;-38
2024/04/04 03:20:15;;;;;;;4.85;1.50;;;;;;;9.29;100.00;100393.69;5073021;28;20036;-39
2024/04/04 03:22:40;;;;;;;5.07;1.42;;;;;;;9.31;100.00;100385.34;5072772;28;20039;-39
2024/04/04 03:25:06;;;;;;;5.17;1.20;;;;;;;9.31;100.00;100391.56;5073061;28;20029;-39
2024/04/04 03:27:31;;;;;;;4.53;1.67;;;;;;;9.32;100.00;100387.81;5073005;28;20035;-39
2024/04/04 03:29:57;;;;;;;3.85;1.27;;;;;;;9.26;100.00;100367.16;5072899;28;20262;-39
2024/04/04 03:32:23;;;;;;;6.03;1.63;;;;;;;9.30;100.00;100373.72;5072962;28;20032;-38
2024/04/04 03:34:48;;;;;;;3.25;1.40;;;;;;;9.35;100.00;100376.53;5073163;28;20155;-39
2024/04/04 03:37:14;;;;;;;4.83;1.50;;;;;;;9.34;100.00;100361.41;5073164;28;20025;-38
2024/04/04 03:39:40;;;;;;;3.67;1.38;;;;;;;9.32;100.00;100352.75;5073241;28;20666;-40
2024/04/04 03:42:05;;;;;;;12.13;2.35;;;;;;;9.35;100.00;100344.16;5076853;28;20033;-38
2024/04/04 03:44:31;;;;;;;4.63;1.45;;;;;;;9.38;100.00;100353.69;5076832;28;20337;-39
2024/04/04 03:46:57;;;;;;;5.40;1.50;;;;;;;9.39;100.00;100344.53;5076501;28;20112;-39
2024/04/04 03:49:22;;;;;;;3.78;1.45;;;;;;;9.38;100.00;100342.88;5076812;28;20024;-38
2024/04/04 03:51:48;;;;;;;4.65;1.92;;;;;;;9.40;100.00;100349.69;5076419;28;20060;-39
2024/04/04 03:54:13;;;;;;;4.03;1.50;;;;;;;9.42;100.00;100339.47;5076802;28;20071;-39
2024/04/04 03:56:39;;;;;;;4.73;1.43;;;;;;;9.42;100.00;100327.84;5076067;28;20033;-39
2024/04/04 03:59:04;;;;;;;5.10;1.87;;;;;;;9.42;100.00;100322.44;5076636;28;20298;-38
2024/04/04 04:01:30;;;;;;;4.07;1.70;;;;;;;9.41;100.00;100321.63;5076495;28;20029;-38
2024/04/04 04:03:55;;;;;;;3.83;1.77;;;;;;;9.42;100.00;100308.94;5075965;28;20112;-39
2024/04/04 04:06:21;;;;;;;5.33;1.80;;;;;;;9.50;100.00;100314.00;5076441;28;20449;-38
2024/04/04 04:08:46;;;;;;;5.22;1.50;;;;;;;9.39;100.00;100293.25;5076632;28;20040;-38
2024/04/04 04:11:12;;;;;;;6.53;1.67;;;;;;;9.55;100.00;100314.94;5075811;28;20031;-39
2024/04/04 04:13:37;;;;;;;4.82;1.67;;;;;;;9.52;100.00;100304.63;5075702;28;20028;-39
2024/04/04 04:16:03;;;;;;;8.17;2.00;;;;;;;9.60;100.00;100311.50;5076286;28;20033;-38
2024/04/04 04:18:28;;;;;;;4.68;1.50;;;;;;;9.63;100.00;100304.84;5076290;28;20304;-39
2024/04/04 04:23:39;;;;;;;4.78;2.10;;;;;;;9.67;100.00;100308.72;5075866;28;20048;-39
2024/04/04 04:26:04;;;;;;;5.47;1.88;;;;;;;9.61;100.00;100288.84;5076685;28;20377;-39
2024/04/04 04:28:29;;;;;;;4.40;2.03;;;;;;;9.71;100.00;100299.03;5076053;28;20032;-39
2024/04/04 04:30:54;;;;;;;6.50;2.33;;;;;;;9.74;100.00;100295.88;5075549;28;20258;-39
2024/04/04 04:33:20;;;;;;;4.53;2.10;;;;;;;9.77;100.00;100292.72;5075596;28;20039;-39
2024/04/04 04:35:46;;;;;;;4.03;1.75;;;;;;;9.77;100.00;100284.63;5076124;28;20107;-39
2024/04/04 04:38:11;;;;;;;4.93;1.90;;;;;;;9.84;100.00;100290.69;5075552;28;20024;-39
2024/04/04 04:40:42;;;;;;;5.60;2.07;;;;;;;9.87;100.00;100292.91;5076036;28;20039;-39
2024/04/04 04:43:08;;;;;;;5.93;1.95;;;;;;;9.81;100.00;100272.28;5075493;28;20074;-39
2024/04/04 04:45:34;;;;;;;4.88;1.80;;;;;;;9.86;100.00;100275.09;5075640;28;20028;-39
2024/04/04 04:48:00;;;;;;;8.75;2.78;;;;;;;9.94;100.00;100277.38;5075394;28;20479;-39
2024/04/04 04:50:25;;;;;;;7.67;2.67;;;;;;;9.97;100.00;100279.63;5075166;28;20028;-39
2024/04/04 04:52:51;;;;;;;6.38;2.60;;;;;;;10.00;100.00;100278.28;5075294;28;20263;-39
2024/04/04 04:55:16;;;;;;;8.50;2.70;;;;;;;10.04;100.00;100271.34;5075819;28;20053;-39
2024/04/04 04:57:41;;;;;;;7.30;2.97;;;;;;;10.06;100.00;100269.25;5074868;28;20028;-39
2024/04/04 05:00:12;;;;;;;7.70;2.47;;;;;;;10.07;100.00;100269.00;5075641;28;20103;-39
2024/04/04 05:02:38;;;;;;;4.45;2.38;;;;;;;10.12;100.00;100262.06;5075662;28;20033;-39
2024/04/04 05:05:12;;;;;;;8.88;2.55;;;;;;;10.01;100.00;100242.97;5075708;28;20078;-39
2024/04/04 05:07:38;;;;;;;8.30;2.65;;;;;;;10.16;100.00;100257.81;5074849;28;20024;-39
2024/04/04 05:10:03;;;;;;;11.03;2.77;;;;;;;10.17;100.00;100246.75;5075576;28;20362;-39
2024/04/04 05:12:29;;;;;;;6.95;2.63;;;;;;;10.14;100.00;100227.50;5075183;28;20274;-39
2024/04/04 05:14:54;;;;;;;11.43;2.83;;;;;;;10.23;100.00;100237.66;5075392;28;20031;-39
2024/04/04 05:17:19;;;;;;;11.23;2.50;;;;;;;10.20;100.00;100234.63;5074577;28;20029;-39
2024/04/04 05:19:45;;;;;;;7.13;2.55;;;;;;;10.29;100.00;100234.00;5075109;28;20259;-39
2024/04/04 05:22:10;;;;;;;8.47;2.90;;;;;;;10.28;100.00;100234.25;5074825;28;20364;-39
2024/04/04 05:24:35;;;;;;;6.57;2.73;;;;;;;10.32;100.00;100244.34;5074782;28;20468;-39
2024/04/04 05:27:00;;;;;;;6.43;2.43;;;;;;;10.28;100.00;100220.75;5074585;28;20758;-39
2024/04/04 05:29:26;;;;;;;6.17;2.37;;;;;;;10.36;100.00;100231.16;5074886;28;20025;-39
2024/04/04 05:31:51;;;;;;;11.07;3.00;;;;;;;10.31;100.00;100217.56;5074558;28;20035;-39
2024/04/04 05:34:17;;;;;;;7.78;2.75;;;;;;;10.42;100.00;100229.38;5074953;28;20024;-39
2024/04/04 05:36:42;;;;;;;7.78;2.38;;;;;;;10.43;100.00;100222.91;5074424;28;20032;-38
2024/04/04 05:39:08;;;;;;;8.03;2.63;;;;;;;10.46;100.00;100227.81;5073400;28;20036;-38
2024/04/04 05:41:34;;;;;;;8.25;2.88;;;;;;;10.49;100.00;100225.47;5074263;28;20029;-38
2024/04/04 05:43:59;;;;;;;8.32;2.67;;;;;;;10.53;100.00;100225.75;5074644;28;20054;-39
2024/04/04 05:46:24;;;;;;;10.27;2.42;;;;;;;10.43;100.00;100203.97;5074223;28;20431;-39
2024/04/04 05:48:50;;;;;;;10.13;2.90;;;;;;;10.54;100.00;100211.19;5074213;28;20082;-39
2024/04/04 05:51:17;;;;;;;8.40;2.65;;;;;;;10.61;100.00;100219.13;5074092;28;20107;-39
2024/04/04 05:53:42;;;;;;;7.15;2.28;;;;;;;10.63;100.00;100215.09;5074442;28;20036;-39
2024/04/04 05:56:07;;;;;;;6.22;2.10;;;;;;;10.67;100.00;100218.97;5074224;28;20020;-39
2024/04/04 05:58:33;;;;;;;8.20;2.40;;;;;;;10.65;100.00;100213.00;5074349;28;20043;-39
2024/04/04 06:00:58;;;;;;;9.65;2.60;;;;;;;10.66;100.00;100209.22;5073569;28;20032;-39
2024/04/04 06:03:23;;;;;;;8.90;2.27;;;;;;;10.75;100.00;100218.56;5073741;28;20029;-39
2024/04/04 06:05:50;;;;;;;9.13;2.50;;;;;;;10.76;100.00;100213.97;5074212;28;20611;-39
2024/04/04 06:08:15;;;;;;;8.65;2.70;;;;;;;10.80;100.00;100217.81;5073559;28;20040;-39
2024/04/04 06:10:40;;;;;;;9.48;2.45;;;;;;;10.87;100.00;100223.03;5074152;28;20449;-38
2024/04/04 06:13:06;;;;;;;8.23;1.90;;;;;;;10.76;100.00;100205.84;5073846;28;20411;-39
2024/04/04 06:15:31;;;;;;;6.60;2.33;;;;;;;10.87;100.00;100220.34;5074565;28;20387;-39
2024/04/04 06:17:57;;;;;;;6.47;2.00;;;;;;;10.93;100.00;100228.31;5074045;28;20463;-39
2024/04/04 06:20:23;;;;;;;7.32;2.38;;;;;;;10.96;100.00;100225.09;5074004;28;20250;-39
2024/04/04 06:22:49;;;;;;;5.57;2.00;;;;;;;10.98;100.00;100230.22;5074424;28;20078;-39
2024/04/04 06:25:14;;;;;;;7.85;2.25;;;;;;;11.01;100.00;100227.84;5073897;28;20025;-39
2024/04/04 06:27:40;;;;;;;4.93;1.58;;;;;;;11.02;100.00;100228.66;5073566;28;20021;-39
2024/04/04 06:30:05;;;;;;;7.00;1.90;;;;;;;11.03;100.00;100224.94;5074455;28;20108;-39
2024/04/04 06:32:31;;;;;;;8.15;1.90;;;;;;;11.05;100.00;100228.19;5073503;28;20028;-39
2024/04/04 06:34:56;;;;;;;8.10;1.90;;;;;;;11.05;100.00;100228.19;5073468;28;20024;-39
2024/04/04 06:37:22;;;;;;;8.30;1.80;;;;;;;11.07;100.00;100234.97;5073175;28;20031;-39
2024/04/04 06:39:47;;;;;;;5.40;2.00;;;;;;;11.06;100.00;100227.94;5073802;28;20029;-39
2024/04/04 06:42:12;;;;;;;5.10;1.77;;;;;;;11.07;100.00;100226.84;5073716;28;20032;-39
2024/04/04 06:44:38;;;;;;;4.38;1.63;;;;;;;11.08;100.00;100228.50;5073496;28;20024;-39
2024/04/04 06:47:04;;;;;;;5.80;1.83;;;;;;;11.09;100.00;100240.97;5073065;28;20028;-39
2024/04/04 06:49:29;;;;;;;3.50;1.27;;;;;;;11.09;100.00;100230.16;5073703;28;20059;-39
2024/04/04 06:51:55;;;;;;;7.28;2.20;;;;;;;11.12;100.00;100233.41;5073293;28;20035;-39
2024/04/04 06:54:21;;;;;;;5.40;1.60;;;;;;;11.11;100.00;100227.19;5073541;28;20480;-40
2024/04/04 06:56:46;;;;;;;6.65;1.60;;;;;;;11.05;100.00;100226.28;5074098;28;20028;-40
2024/04/04 06:59:11;;;;;;;5.63;1.43;;;;;;;11.07;100.00;100215.22;5073331;28;20095;-40
2024/04/04 07:01:37;;;;;;;3.20;1.27;;;;;;;11.14;100.00;100229.41;5072976;28;20271;-38
2024/04/04 07:04:03;;;;;;;6.50;1.43;;;;;;;11.15;100.00;100232.94;5073068;28;20032;-38
2024/04/04 07:06:29;;;;;;;5.40;1.42;;;;;;;11.16;100.00;100235.38;5073688;28;20032;-39
2024/04/04 07:08:54;;;;;;;4.28;1.25;;;;;;;11.16;100.00;100246.19;5073167;28;20400;-39
2024/04/04 07:11:20;;;;;;;6.28;2.25;;;;;;;11.12;100.00;100228.00;5073379;28;20120;-39
2024/04/04 07:13:46;;;;;;;5.53;1.45;;;;;;;11.11;100.00;100231.78;5073062;28;20064;-39
2024/04/04 07:16:12;;;;;;;6.35;1.45;;;;;;;11.15;100.00;100239.16;5076126;28;20033;-39
2024/04/04 07:18:38;;;;;;;7.40;2.22;;;;;;;11.16;100.00;100245.38;5077941;28;20062;-38
2024/04/04 07:21:05;;;;;;;4.35;1.80;;;;;;;11.16;100.00;100243.50;5077082;28;20051;-39
2024/04/04 07:23:31;;;;;;;4.60;1.50;;;;;;;11.17;100.00;100220.75;5077275;28;20024;-38
2024/04/04 07:25:56;;;;;;;4.68;1.50;;;;;;;11.18;100.00;100211.59;5076724;28;20047;-38
2024/04/04 07:28:22;;;;;;;4.75;1.10;;;;;;;11.17;100.00;100217.25;5077416;28;20020;-38
2024/04/04 07:30:48;;;;;;;5.53;1.73;;;;;;;11.13;100.00;100214.25;5077114;28;20040;-38
2024/04/04 07:33:13;;;;;;;5.78;1.60;;;;;;;11.11;100.00;100216.34;5076692;28;20021;-38
2024/04/04 07:35:39;;;;;;;4.35;1.20;;;;;;;11.18;100.00;100224.31;5076765;28;20024;-39
2024/04/04 07:38:08;;;;;;;3.53;1.08;;;;;;;11.17;100.00;100209.94;5076665;28;20024;-39
2024/04/04 07:40:40;;;;;;;2.35;1.00;;;;;;;11.11;100.00;100191.19;5076915;28;20039;-39
2024/04/04 07:43:06;;;;;;;3.70;1.30;;;;;;;11.16;100.00;100212.91;5076619;28;20027;-39
2024/04/04 07:45:37;;;;;;;3.67;1.15;;;;;;;11.18;100.00;100208.09;5076717;28;20465;-40
2024/04/04 07:48:02;;;;;;;3.20;1.13;;;;;;;11.20;100.00;100222.16;5077309;28;20032;-39
2024/04/04 07:50:28;;;;;;;4.43;1.42;;;;;;;11.14;100.00;100223.19;5077242;28;20101;-39
2024/04/04 07:52:53;;;;;;;4.80;1.23;;;;;;;11.20;100.00;100241.94;5076091;28;20037;-39
2024/04/04 07:55:18;;;;;;;4.18;1.50;;;;;;;11.20;100.00;100231.09;5077415;28;20044;-40
2024/04/04 07:57:44;;;;;;;3.55;1.40;;;;;;;11.21;100.00;100235.44;5076318;28;20060;-40
2024/04/04 08:00:13;;;;;;;4.28;1.25;;;;;;;11.23;100.00;100254.16;5076569;28;20081;-40
2024/04/04 08:02:39;;;;;;;5.88;1.70;;;;;;;11.24;100.00;100261.19;5076246;28;20380;-40
2024/04/04 08:05:04;;;;;;;4.80;1.45;;;;;;;11.24;100.00;100262.03;5076655;28;20115;-39
2024/04/04 08:07:35;;;;;;;3.80;1.10;;;;;;;11.25;100.00;100260.94;5076058;28;20077;-39
2024/04/04 08:10:11;;;;;;;4.13;1.35;;;;;;;11.18;100.00;100254.91;5076903;28;20029;-39
2024/04/04 08:12:37;;;;;;;4.47;1.70;;;;;;;11.25;100.00;100260.13;5076357;28;20393;-39
2024/04/04 08:15:10;;;;;;;7.30;1.98;;;;;;;11.22;100.00;100249.78;5076250;28;20279;-39
2024/04/04 08:17:37;;;;;;;4.18;1.25;;;;;;;11.30;100.00;100265.59;5076516;28;20052;-39
2024/04/04 08:20:03;;;;;;;3.50;1.15;;;;;;;11.31;100.00;100264.53;5076233;28;20020;-39
2024/04/04 08:22:29;;;;;;;4.75;1.33;;;;;;;11.26;100.00;100256.34;5076399;28;20035;-39
2024/04/04 08:24:54;;;;;;;3.08;1.08;;;;;;;11.33;100.00;100268.63;5076122;28;20461;-39
2024/04/04 08:27:20;;;;;;;4.18;1.42;;;;;;;11.35;100.00;100277.31;5075591;28;20035;-39
2024/04/04 08:29:49;;;;;;;2.92;1.15;;;;;;;11.30;100.00;100290.78;5075842;28;20031;-39
2024/04/04 08:32:15;;;;;;;3.85;1.35;;;;;;;11.33;100.00;100294.91;5075642;28;20029;-39
2024/04/04 08:34:41;;;;;;;5.38;1.50;;;;;;;11.40;100.00;100294.72;5076394;28;20424;-39
2024/04/04 08:37:06;;;;;;;3.35;1.40;;;;;;;11.44;100.00;100288.53;5075613;28;20060;-39
2024/04/04 08:39:32;;;;;;;5.43;1.50;;;;;;;11.46;100.00;100283.69;5075374;28;20035;-39
2024/04/04 08:41:57;;;;;;;4.25;1.58;;;;;;;11.51;100.00;100286.47;5076098;28;20056;-39
2024/04/04 08:44:24;;;;;;;2.47;1.10;;;;;;;11.47;100.00;100273.69;5075629;28;20071;-39
2024/04/04 08:46:50;;;;;;;4.57;1.60;;;;;;;11.61;100.00;100285.78;5075754;28;20032;-39
2024/04/04 08:49:16;;;;;;;4.93;1.40;;;;;;;11.64;100.00;100285.28;5075669;28;20032;-38
2024/04/04 08:51:41;;;;;;;3.78;1.20;;;;;;;11.72;100.00;100292.16;5075066;28;20385;-38
2024/04/04 08:54:07;;;;;;;5.32;1.30;;;;;;;11.78;100.00;100299.28;5075392;28;20178;-38
2024/04/04 08:56:32;;;;;;;3.63;1.20;;;;;;;11.82;100.00;100297.75;5075283;28;20124;-39
2024/04/04 08:58:58;;;;;;;3.90;1.38;;;;;;;11.87;100.00;100288.84;5075595;28;20354;-39
2024/04/04 09:01:25;;;;;;;3.10;1.35;;;;;;;11.82;100.00;100281.47;5074911;28;20035;-39
2024/04/04 09:03:52;;;;;;;4.28;1.52;;;;;;;11.89;100.00;100290.22;5075157;28;20081;-39
2024/04/04 09:06:19;;;;;;;4.65;1.35;;;;;;;11.90;100.00;100291.84;5074779;28;20154;-39
2024/04/04 09:08:45;;;;;;;3.53;1.23;;;;;;;11.96;100.00;100298.19;5075574;28;20025;-39
2024/04/04 09:11:11;;;;;;;3.13;1.25;;;;;;;11.98;100.00;100291.41;5075053;28;20396;-39
2024/04/04 09:13:37;;;;;;;2.55;1.25;;;;;;;11.97;100.00;100275.41;5075163;28;20025;-40
2024/04/04 09:16:03;;;;;;;2.58;1.45;;;;;;;12.04;100.00;100278.75;5074689;28;20036;-39
2024/04/04 09:18:29;;;;;;;4.43;1.23;;;;;;;12.09;100.00;100289.63;5075201;28;20029;-39
2024/04/04 09:21:02;;;;;;;2.80;1.02;;;;;;;12.02;100.00;100259.22;5075060;28;20029;-39
2024/04/04 09:23:29;;;;;;;1.90;0.82;;;;;;;12.23;100.00;100285.44;5074832;28;20098;-39
2024/04/04 09:25:56;;;;;;;2.15;1.10;;;;;;;12.29;100.00;100286.31;5074517;28;20029;-39
2024/04/04 09:28:21;;;;;;;2.50;0.90;;;;;;;12.31;100.00;100295.03;5074442;28;20118;-39
2024/04/04 09:30:49;;;;;;;3.10;1.00;;;;;;;12.35;100.00;100305.09;5074462;28;20500;-39
2024/04/04 09:33:18;;;;;;;2.88;0.93;;;;;;;12.33;100.00;100301.00;5074348;28;20024;-39
2024/04/04 09:35:45;;;;;;;2.17;0.80;;;;;;;12.40;100.00;100300.81;5074039;28;20036;-38
2024/04/04 09:38:11;;;;;;;2.92;0.80;;;;;;;12.51;100.00;100311.50;5073256;28;20040;-38
2024/04/04 09:40:38;;;;;;;2.33;0.60;;;;;;;12.68;100.00;100305.13;5074779;28;20102;-38
2024/04/04 09:43:04;;;;;;;2.90;0.80;;;;;;;12.68;100.00;100321.41;5073939;28;20055;-39
2024/04/04 09:45:30;;;;;;;2.90;0.80;;;;;;;12.65;100.00;100319.22;5073964;28;20146;-39
2024/04/04 09:47:55;;;;;;;2.50;0.73;;;;;;;12.65;100.00;100338.22;5073778;28;20096;-40
2024/04/04 09:50:21;;;;;;;1.20;0.50;;;;;;;12.63;100.00;100336.56;5074689;28;20469;-39
2024/04/04 09:52:48;;;;;;;;;;;;;;;12.70;100.00;100346.41;5074194;28;20072;-39
2024/04/04 09:55:17;;;;;;;1.80;0.90;;;;;;;12.64;100.00;100348.25;5074272;28;19925;-39
2024/04/04 09:57:44;;;;;;;2.67;0.55;;;;;;;12.67;100.00;100350.44;5073883;28;20052;-39
2024/04/04 10:00:17;;;;;;;1.60;0.60;;;;;;;12.71;100.00;100354.28;5073935;28;20037;-39
2024/04/04 10:02:52;;;;;;;2.92;0.70;;;;;;;12.84;100.00;100355.75;5073762;28;20032;-39
2024/04/04 10:05:19;;;;;;;2.22;0.70;;;;;;;12.85;100.00;100355.47;5073529;28;20054;-39
2024/04/04 10:07:48;;;;;;;1.75;0.60;;;;;;;13.02;100.00;100352.63;5073542;28;20373;-39
2024/04/04 10:10:20;;;;;;;1.98;0.77;;;;;;;13.15;100.00;100352.19;5074000;28;20039;-39
2024/04/04 10:12:50;;;;;;;1.70;0.68;;;;;;;13.26;100.00;100357.75;5073052;28;20063;-39
2024/04/04 10:15:16;;;;;;;3.03;0.75;;;;;;;13.24;100.00;100368.88;5073626;28;20027;-40
2024/04/04 10:17:55;;;;;;;3.13;0.68;;;;;;;13.26;100.00;100360.44;5073292;28;20040;-39
2024/04/04 10:20:22;;;;;;;2.00;0.65;;;;;;;13.25;100.00;100356.09;5073627;28;20465;-39
2024/04/04 10:23:05;;;;;;;2.10;0.60;;;;;;;13.33;100.00;100364.59;5072978;28;20481;-40
2024/04/04 10:25:31;;;;;;;3.05;0.65;;;;;;;13.41;100.00;100371.41;5073633;28;20481;-38
2024/04/04 10:28:04;;;;;;;1.83;0.73;;;;;;;13.44;100.00;100368.19;5073329;28;20040;-39
2024/04/04 10:30:40;;;;;;;4.10;0.90;;;;;;;13.55;100.00;100367.16;5073589;28;20111;-38
2024/04/04 10:33:13;;;;;;;2.37;0.80;;;;;;;13.62;100.00;100359.63;5073814;28;20024;-43
2024/04/04 10:35:39;;;;;;;3.13;0.70;;;;;;;13.72;100.00;100360.75;5073768;28;20107;-39
2024/04/04 10:38:06;;;;;;;2.67;0.65;;;;;;;13.86;100.00;100370.09;5074028;28;20127;-38
2024/04/04 10:40:31;;;;;;;3.08;0.90;;;;;;;13.81;100.00;100372.75;5073998;28;20368;-39
2024/04/04 10:42:57;;;;;;;1.53;0.67;;;;;;;13.90;100.00;100354.84;5073207;28;20040;-39
2024/04/04 10:45:23;;;;;;;2.65;0.80;;;;;;;13.92;100.00;100355.44;5073813;28;20755;-39
2024/04/04 10:47:55;;;;;;;1.60;0.60;;;;;;;13.94;100.00;100372.28;5073136;28;20035;-39
2024/04/04 10:50:20;;;;;;;2.63;0.80;;;;;;;14.03;100.00;100354.38;5073467;28;20040;-39
2024/04/04 10:52:46;;;;;;;2.90;1.08;;;;;;;14.29;100.00;100373.50;5073304;28;20028;-39
2024/04/04 10:55:11;;;;;;;2.22;0.77;;;;;;;14.37;100.00;100375.72;5073531;28;20048;-39
2024/04/04 10:57:38;;;;;;;4.85;0.98;;;;;;;14.40;100.00;100370.56;5073589;28;20058;-39
2024/04/04 11:00:11;;;;;;;2.60;1.00;;;;;;;14.60;100.00;100371.72;5073488;28;20068;-39
2024/04/04 11:02:37;;;;;;;1.73;0.70;;;;;;;14.79;100.00;100378.31;5073455;28;20025;-39
2024/04/04 11:05:07;;;;;;;4.03;0.90;;;;;;;14.81;100.00;100358.97;5073183;28;20034;-39
2024/04/04 11:07:32;;;;;;;4.28;1.02;;;;;;;14.84;100.00;100358.44;5072820;28;20024;-40
2024/04/04 11:09:58;;;;;;;4.57;1.05;;;;;;;14.99;100.00;100382.13;5073203;28;20025;-39
2024/04/04 11:12:23;;;;;;;;;;;;;;;15.19;100.00;100379.41;5073310;28;20063;-40
2024/04/04 11:14:48;;;;;;;5.93;1.40;;;;;;;15.09;100.00;100393.84;5073336;28;19938;-39
2024/04/04 11:17:13;;;;;;;;;;;;;;;15.19;100.00;100379.41;5073491;28;20436;-38
2024/04/04 11:19:39;;;;;;;3.27;1.03;;;;;;;15.11;100.00;100358.16;5073090;28;19908;-38